Esperance, New York
Current Conditions -  °F | °C
As of 8:15 AM on Monday 22 Dec 2014 (Local Time) from KNY0 Reporting Station
Overcast Overcast  
Wind Chill: 21°   Ceiling: 1500
Heat Index: 27°   Visibility: 4mi
Dew Point: 24°   Wind: 5mph
Humidity: 89%   Direction: 110°ESE
Pressure: 30.32"   Gusts: NA
Location:  42.76°N, 74.26°W
Report Text: KNY0 221315Z AUTO 11004KT 4SM OVC015 M03/M05 A3032 RMK AO2 T10301046
Loading
Personal Weather Stations






























Interactive Weather Map New forecast layout! Learn more

10-Day Weather Forecast

Advertisements
Track Severe Weather on mobile